createdAt,value
2018-01-26T00:00:41.189Z,0
2018-01-26T00:01:41.787Z,0
2018-01-26T00:02:42.387Z,0
2018-01-26T00:03:42.974Z,0
2018-01-26T00:04:43.569Z,0
2018-01-26T00:05:44.164Z,0
2018-01-26T00:06:44.764Z,0
2018-01-26T00:07:45.352Z,0
2018-01-26T00:08:45.951Z,0
2018-01-26T00:09:46.551Z,0
2018-01-26T00:10:47.157Z,0
2018-01-26T00:11:47.756Z,0
2018-01-26T00:12:48.360Z,0
2018-01-26T00:13:48.946Z,0
2018-01-26T00:14:49.551Z,0
2018-01-26T00:15:50.142Z,0
2018-01-26T00:16:50.757Z,0
2018-01-26T00:17:51.324Z,0
2018-01-26T00:18:51.921Z,0
2018-01-26T00:19:52.516Z,0
2018-01-26T00:20:53.112Z,0
2018-01-26T00:21:53.708Z,0
2018-01-26T00:22:54.311Z,0
2018-01-26T00:23:54.908Z,0
2018-01-26T00:24:55.510Z,0
2018-01-26T00:25:56.107Z,0
2018-01-26T00:26:56.704Z,0
2018-01-26T00:27:57.297Z,0
2018-01-26T00:28:57.896Z,0
2018-01-26T00:29:58.499Z,0
2018-01-26T00:30:59.099Z,0
2018-01-26T00:31:59.693Z,0
2018-01-26T00:33:00.297Z,0
2018-01-26T00:34:00.891Z,0
2018-01-26T00:35:01.487Z,0
2018-01-26T00:36:02.078Z,0
2018-01-26T00:37:02.679Z,0
2018-01-26T00:38:03.283Z,0
2018-01-26T00:39:03.876Z,0
2018-01-26T00:40:04.504Z,0
2018-01-26T00:41:05.067Z,0
2018-01-26T00:42:05.665Z,0
2018-01-26T00:43:06.261Z,0
2018-01-26T00:44:06.847Z,0
2018-01-26T00:45:07.448Z,0
2018-01-26T00:46:08.039Z,0
2018-01-26T00:47:08.656Z,0
2018-01-26T00:48:09.237Z,0
2018-01-26T00:49:09.839Z,0
2018-01-26T00:50:10.434Z,0
2018-01-26T00:51:11.039Z,0
2018-01-26T00:52:11.634Z,0
2018-01-26T00:53:12.232Z,0
2018-01-26T00:54:12.835Z,0
2018-01-26T00:55:13.435Z,0
2018-01-26T00:56:14.039Z,0
2018-01-26T00:57:14.631Z,0
2018-01-26T00:58:15.221Z,0
2018-01-26T00:59:15.821Z,0
2018-01-26T01:00:16.426Z,0
2018-01-26T01:01:17.029Z,0
2018-01-26T01:02:17.634Z,0
2018-01-26T01:03:18.259Z,0
2018-01-26T01:04:18.862Z,0
2018-01-26T01:05:19.439Z,0
2018-01-26T01:06:20.030Z,0
2018-01-26T01:07:20.630Z,0
2018-01-26T01:08:21.224Z,0
2018-01-26T01:09:21.820Z,0
2018-01-26T01:10:22.417Z,0
2018-01-26T01:11:23.011Z,0
2018-01-26T01:12:23.607Z,0
2018-01-26T01:13:24.211Z,0
2018-01-26T01:14:24.814Z,0
2018-01-26T01:15:25.408Z,0
2018-01-26T01:16:26.007Z,0
2018-01-26T01:17:26.596Z,0
2018-01-26T01:18:27.189Z,0
2018-01-26T01:19:27.787Z,0
2018-01-26T01:20:28.370Z,0
2018-01-26T01:21:28.966Z,0
2018-01-26T01:22:29.558Z,0
2018-01-26T01:23:30.156Z,0
2018-01-26T01:24:30.764Z,0
2018-01-26T01:25:31.356Z,0
2018-01-26T01:26:31.963Z,0
2018-01-26T01:27:32.549Z,0
2018-01-26T01:28:33.136Z,0
2018-01-26T01:29:33.734Z,0
2018-01-26T01:30:34.324Z,0
2018-01-26T01:31:34.921Z,0
2018-01-26T01:32:35.524Z,0
2018-01-26T01:33:36.124Z,0
2018-01-26T01:34:36.713Z,0
2018-01-26T01:35:37.309Z,0
2018-01-26T01:36:37.909Z,0
2018-01-26T01:37:38.503Z,0
2018-01-26T01:38:39.094Z,0
2018-01-26T01:39:39.684Z,0
2018-01-26T01:40:40.277Z,0
2018-01-26T01:41:40.872Z,0
2018-01-26T01:42:41.474Z,0
2018-01-26T01:43:42.060Z,0
2018-01-26T01:44:42.653Z,0
2018-01-26T01:45:43.252Z,0
2018-01-26T01:46:43.860Z,0
2018-01-26T01:47:44.436Z,0
2018-01-26T01:48:45.039Z,0
2018-01-26T01:49:45.637Z,0
2018-01-26T01:50:46.238Z,0
2018-01-26T01:51:46.830Z,0
2018-01-26T01:52:47.424Z,0
2018-01-26T01:53:48.026Z,0
2018-01-26T01:54:48.626Z,0
2018-01-26T01:55:49.224Z,0
2018-01-26T01:56:49.827Z,0
2018-01-26T01:57:50.425Z,0
2018-01-26T01:58:51.020Z,0
2018-01-26T01:59:51.613Z,0
2018-01-26T02:00:52.205Z,0
2018-01-26T02:01:52.799Z,0
2018-01-26T02:02:53.397Z,0
2018-01-26T02:03:53.993Z,0
2018-01-26T02:04:54.586Z,0
2018-01-26T02:05:55.201Z,0
2018-01-26T02:06:55.784Z,0
2018-01-26T02:07:56.379Z,0
2018-01-26T02:08:56.970Z,0
2018-01-26T02:09:57.564Z,0
2018-01-26T02:10:58.163Z,0
2018-01-26T02:11:58.763Z,0
2018-01-26T02:12:59.360Z,0
2018-01-26T02:13:59.951Z,0
2018-01-26T02:15:00.549Z,0
2018-01-26T02:16:01.143Z,0
2018-01-26T02:17:01.741Z,0
2018-01-26T02:18:02.346Z,0
2018-01-26T02:19:02.935Z,0
2018-01-26T02:20:03.535Z,0
2018-01-26T02:21:04.125Z,0
2018-01-26T02:22:04.719Z,0
2018-01-26T02:23:05.310Z,0
2018-01-26T02:24:05.895Z,0
2018-01-26T02:25:06.495Z,0
2018-01-26T02:26:07.093Z,0
2018-01-26T02:27:07.685Z,0
2018-01-26T02:28:08.285Z,0
2018-01-26T02:29:08.887Z,0
2018-01-26T02:30:09.484Z,0
2018-01-26T02:31:10.073Z,0
2018-01-26T02:32:10.661Z,0
2018-01-26T02:33:11.259Z,0
2018-01-26T02:34:11.856Z,0
2018-01-26T02:35:12.457Z,0
2018-01-26T02:36:13.057Z,0
2018-01-26T02:37:13.647Z,0
2018-01-26T02:38:14.251Z,0
2018-01-26T02:39:14.843Z,0
2018-01-26T02:40:15.448Z,0
2018-01-26T02:41:16.040Z,0
2018-01-26T02:42:16.631Z,0
2018-01-26T02:43:17.227Z,0
2018-01-26T02:44:17.835Z,0
2018-01-26T02:45:18.426Z,0
2018-01-26T02:46:19.028Z,0
2018-01-26T02:47:19.627Z,0
2018-01-26T02:48:20.224Z,0
2018-01-26T02:49:20.841Z,0
2018-01-26T02:50:21.419Z,0
2018-01-26T02:51:22.015Z,0
2018-01-26T02:52:22.607Z,0
2018-01-26T02:53:23.204Z,0
2018-01-26T02:54:23.806Z,0
2018-01-26T02:55:24.405Z,0
2018-01-26T02:56:25.001Z,0
2018-01-26T02:57:25.589Z,0
2018-01-26T02:58:26.188Z,0
2018-01-26T02:59:26.779Z,0
2018-01-26T03:00:27.379Z,0
2018-01-26T03:01:27.973Z,0
2018-01-26T03:02:28.570Z,0
2018-01-26T03:03:29.165Z,0
2018-01-26T03:04:29.768Z,0
2018-01-26T03:05:30.360Z,0
2018-01-26T03:06:30.956Z,0
2018-01-26T03:07:31.559Z,0
2018-01-26T03:08:32.156Z,0
2018-01-26T03:09:32.751Z,0
2018-01-26T03:10:33.353Z,0
2018-01-26T03:11:33.948Z,0
2018-01-26T03:12:34.547Z,0
2018-01-26T03:13:35.143Z,0
2018-01-26T03:14:35.744Z,0
2018-01-26T03:15:36.340Z,0
2018-01-26T03:16:36.937Z,0
2018-01-26T03:17:37.536Z,0
2018-01-26T03:18:38.133Z,0
2018-01-26T03:19:38.718Z,0
2018-01-26T03:20:39.321Z,0
2018-01-26T03:21:39.913Z,0
2018-01-26T03:22:40.498Z,0
2018-01-26T03:23:41.092Z,0
2018-01-26T03:24:41.689Z,0
2018-01-26T03:25:42.284Z,0
2018-01-26T03:26:42.877Z,0
2018-01-26T03:27:43.470Z,0
2018-01-26T03:28:44.060Z,0
2018-01-26T03:29:44.660Z,0
2018-01-26T03:30:45.261Z,0
2018-01-26T03:31:45.845Z,0
2018-01-26T03:32:46.441Z,0
2018-01-26T03:33:47.031Z,0
2018-01-26T03:34:47.631Z,0
2018-01-26T03:35:48.218Z,0
2018-01-26T03:36:48.812Z,0
2018-01-26T03:37:49.408Z,0
2018-01-26T03:38:50.007Z,0
2018-01-26T03:39:50.604Z,0
2018-01-26T03:40:51.197Z,0
2018-01-26T03:41:51.791Z,0
2018-01-26T03:42:52.382Z,0
2018-01-26T03:43:52.968Z,0
2018-01-26T03:44:53.565Z,0
2018-01-26T03:45:54.156Z,0
2018-01-26T03:46:54.749Z,0
2018-01-26T03:47:55.358Z,0
2018-01-26T03:48:55.950Z,0
2018-01-26T03:49:56.536Z,0
2018-01-26T03:50:57.129Z,0
2018-01-26T03:51:57.730Z,0
2018-01-26T03:52:58.312Z,0
2018-01-26T03:53:58.905Z,0
2018-01-26T03:54:59.500Z,0
2018-01-26T03:56:00.096Z,0
2018-01-26T03:57:00.696Z,0
2018-01-26T03:58:01.289Z,0
2018-01-26T03:59:01.889Z,0
2018-01-26T04:00:02.493Z,0
2018-01-26T04:01:03.087Z,0
2018-01-26T04:02:03.676Z,0
2018-01-26T04:03:04.273Z,0
2018-01-26T04:04:04.871Z,0
2018-01-26T04:05:05.472Z,0
2018-01-26T04:06:06.068Z,0
2018-01-26T04:07:06.667Z,0
2018-01-26T04:08:07.258Z,0
2018-01-26T04:09:07.851Z,0
2018-01-26T04:10:08.452Z,0
2018-01-26T04:11:09.056Z,0
2018-01-26T04:12:09.630Z,0
2018-01-26T04:13:10.223Z,0
2018-01-26T04:14:10.815Z,0
2018-01-26T04:15:11.404Z,0
2018-01-26T04:16:12.004Z,0
2018-01-26T04:17:12.607Z,0
2018-01-26T04:18:13.287Z,0
2018-01-26T04:19:13.871Z,0
2018-01-26T04:20:14.465Z,0
2018-01-26T04:21:15.073Z,0
2018-01-26T04:22:15.676Z,0
2018-01-26T04:23:16.264Z,0
2018-01-26T04:24:16.853Z,0
2018-01-26T04:25:17.441Z,0
2018-01-26T04:26:18.026Z,0
2018-01-26T04:27:18.625Z,0
2018-01-26T04:28:19.223Z,0
2018-01-26T04:29:19.821Z,0
2018-01-26T04:30:20.410Z,0
2018-01-26T04:31:21.004Z,0
2018-01-26T04:32:21.599Z,0
2018-01-26T04:33:22.201Z,0
2018-01-26T04:34:22.797Z,0
2018-01-26T04:35:23.384Z,0
2018-01-26T04:36:23.984Z,0
2018-01-26T04:37:24.578Z,0
2018-01-26T04:38:25.173Z,0
2018-01-26T04:39:25.766Z,0
2018-01-26T04:40:26.365Z,0
2018-01-26T04:41:26.966Z,0
2018-01-26T04:42:27.560Z,0
2018-01-26T04:43:28.151Z,0
2018-01-26T04:44:28.759Z,0
2018-01-26T04:45:29.340Z,0
2018-01-26T04:46:29.939Z,0
2018-01-26T04:47:30.534Z,0
2018-01-26T04:48:31.138Z,0
2018-01-26T04:49:31.732Z,0
2018-01-26T04:50:32.333Z,0
2018-01-26T04:51:32.924Z,0
2018-01-26T04:52:33.518Z,0
2018-01-26T04:53:34.121Z,0
2018-01-26T04:54:34.711Z,0
2018-01-26T04:55:35.298Z,0
2018-01-26T04:56:35.896Z,0
2018-01-26T04:57:36.494Z,0
2018-01-26T04:58:37.083Z,0
2018-01-26T04:59:37.676Z,0
2018-01-26T05:00:38.267Z,0
2018-01-26T05:01:38.861Z,0
2018-01-26T05:02:39.467Z,0
2018-01-26T05:03:40.069Z,0
2018-01-26T05:04:40.666Z,0
2018-01-26T05:05:41.258Z,0
2018-01-26T05:06:41.860Z,0
2018-01-26T05:07:42.461Z,0
2018-01-26T05:08:43.059Z,0
2018-01-26T05:09:43.653Z,0
2018-01-26T05:10:44.245Z,0
2018-01-26T05:11:44.854Z,0
2018-01-26T05:12:45.434Z,0
2018-01-26T05:13:46.026Z,0
2018-01-26T05:14:46.627Z,0
2018-01-26T05:15:47.216Z,0
2018-01-26T05:16:47.816Z,0
2018-01-26T05:17:48.415Z,0
2018-01-26T05:18:49.013Z,0
2018-01-26T05:19:49.618Z,0
2018-01-26T05:20:50.207Z,0
2018-01-26T05:21:50.792Z,0
2018-01-26T05:22:51.389Z,0
2018-01-26T05:23:51.983Z,0
2018-01-26T05:24:52.581Z,0
2018-01-26T05:25:53.178Z,0
2018-01-26T05:26:53.779Z,0
2018-01-26T05:27:54.382Z,0
2018-01-26T05:28:54.989Z,0
2018-01-26T05:29:55.585Z,0
2018-01-26T05:30:56.204Z,0
2018-01-26T05:31:56.773Z,0
2018-01-26T05:32:57.377Z,0
2018-01-26T05:33:57.974Z,0
2018-01-26T05:34:58.566Z,0
2018-01-26T05:35:59.161Z,0
2018-01-26T05:36:59.752Z,0
2018-01-26T05:38:00.356Z,0
2018-01-26T05:39:00.947Z,0
2018-01-26T05:40:01.542Z,0
2018-01-26T05:41:02.135Z,0
2018-01-26T05:42:02.728Z,0
2018-01-26T05:43:03.317Z,0
2018-01-26T05:44:03.921Z,0
2018-01-26T05:45:04.517Z,0
2018-01-26T05:46:05.115Z,0
2018-01-26T05:47:05.704Z,0
2018-01-26T05:48:06.301Z,0
2018-01-26T05:49:06.901Z,0
2018-01-26T05:50:07.494Z,0
2018-01-26T05:51:08.090Z,0
2018-01-26T05:52:08.688Z,0
2018-01-26T05:53:09.280Z,0
2018-01-26T05:54:09.877Z,0
2018-01-26T05:55:10.475Z,0
2018-01-26T05:56:11.072Z,0
2018-01-26T05:57:11.675Z,0
2018-01-26T05:58:12.273Z,0
2018-01-26T05:59:12.884Z,0
2018-01-26T06:00:13.492Z,0
2018-01-26T06:01:14.090Z,0
2018-01-26T06:02:14.686Z,0
2018-01-26T06:03:15.271Z,0
2018-01-26T06:04:15.874Z,0
2018-01-26T06:05:16.471Z,0
2018-01-26T06:06:17.070Z,0
2018-01-26T06:07:17.669Z,0
2018-01-26T06:08:18.257Z,0
2018-01-26T06:09:18.846Z,0
2018-01-26T06:10:19.442Z,0
2018-01-26T06:11:20.042Z,0
2018-01-26T06:12:20.636Z,0
2018-01-26T06:13:21.230Z,0
2018-01-26T06:14:21.827Z,0
2018-01-26T06:15:22.424Z,0
2018-01-26T06:16:23.022Z,0
2018-01-26T06:17:23.613Z,0
2018-01-26T06:18:24.208Z,0
2018-01-26T06:19:24.809Z,0
2018-01-26T06:20:25.410Z,0
2018-01-26T06:21:26.002Z,0
2018-01-26T06:22:26.605Z,0
2018-01-26T06:23:27.197Z,0
2018-01-26T06:24:27.787Z,0
2018-01-26T06:25:28.376Z,0
2018-01-26T06:26:28.963Z,0
2018-01-26T06:27:29.568Z,0
2018-01-26T06:28:30.176Z,0
2018-01-26T06:29:30.775Z,0
2018-01-26T06:30:31.372Z,0
2018-01-26T06:31:31.969Z,0
2018-01-26T06:32:32.565Z,0
2018-01-26T06:33:33.157Z,0
2018-01-26T06:34:33.756Z,0
2018-01-26T06:35:34.357Z,0
2018-01-26T06:36:34.954Z,0
2018-01-26T06:37:35.550Z,0
2018-01-26T06:38:36.152Z,0
2018-01-26T06:39:36.744Z,0
2018-01-26T06:40:37.344Z,0
2018-01-26T06:41:37.945Z,0
2018-01-26T06:42:38.544Z,0
2018-01-26T06:43:39.138Z,0
2018-01-26T06:44:39.731Z,0
2018-01-26T06:45:40.326Z,4
2018-01-26T06:46:40.926Z,4
2018-01-26T06:47:41.530Z,4
2018-01-26T06:48:42.111Z,0
2018-01-26T06:49:42.705Z,4
2018-01-26T06:50:43.295Z,4
2018-01-26T06:51:43.886Z,8
2018-01-26T06:52:44.484Z,4
2018-01-26T06:53:45.087Z,8
2018-01-26T06:54:45.686Z,8
2018-01-26T06:55:46.288Z,12
2018-01-26T06:56:46.887Z,12
2018-01-26T06:57:47.485Z,16
2018-01-26T06:58:48.075Z,20
2018-01-26T06:59:48.668Z,24
2018-01-26T07:00:49.268Z,24
2018-01-26T07:01:49.858Z,28
2018-01-26T07:02:50.453Z,32
2018-01-26T07:03:51.050Z,36
2018-01-26T07:04:51.645Z,44
2018-01-26T07:05:52.249Z,52
2018-01-26T07:06:52.843Z,60
2018-01-26T07:07:53.442Z,68
2018-01-26T07:08:54.031Z,80
2018-01-26T07:09:54.620Z,92
2018-01-26T07:10:55.221Z,100
2018-01-26T07:11:55.822Z,116
2018-01-26T07:12:56.424Z,132
2018-01-26T07:13:57.013Z,144
2018-01-26T07:14:57.616Z,160
2018-01-26T07:15:58.219Z,176
2018-01-26T07:16:58.813Z,192
2018-01-26T07:17:59.406Z,208
2018-01-26T07:19:00.004Z,228
2018-01-26T07:20:00.615Z,252
2018-01-26T07:21:01.233Z,276
2018-01-26T07:22:01.837Z,296
2018-01-26T07:23:02.437Z,316
2018-01-26T07:24:03.034Z,336
2018-01-26T07:25:03.629Z,364
2018-01-26T07:26:04.238Z,388
2018-01-26T07:27:04.843Z,420
2018-01-26T07:28:05.447Z,452
2018-01-26T07:29:06.047Z,476
2018-01-26T07:30:06.642Z,496
2018-01-26T07:31:07.247Z,512
2018-01-26T07:32:07.849Z,536
2018-01-26T07:33:08.442Z,564
2018-01-26T07:34:09.056Z,600
2018-01-26T07:35:09.692Z,636
2018-01-26T07:36:10.297Z,672
2018-01-26T07:37:10.894Z,696
2018-01-26T07:38:11.492Z,724
2018-01-26T07:39:12.090Z,744
2018-01-26T07:40:12.694Z,772
2018-01-26T07:41:13.292Z,816
2018-01-26T07:42:13.889Z,872
2018-01-26T07:43:14.487Z,940
2018-01-26T07:44:15.088Z,1016
2018-01-26T07:45:15.681Z,1096
2018-01-26T07:46:16.290Z,1180
2018-01-26T07:47:16.878Z,1264
2018-01-26T07:48:17.487Z,1344
2018-01-26T07:49:18.086Z,1420
2018-01-26T07:50:18.680Z,1484
2018-01-26T07:51:19.288Z,1556
2018-01-26T07:52:19.882Z,1632
2018-01-26T07:53:20.484Z,1708
2018-01-26T07:54:21.080Z,1784
2018-01-26T07:55:21.697Z,1864
2018-01-26T07:56:22.296Z,1924
2018-01-26T07:57:22.895Z,1984
2018-01-26T07:58:23.498Z,2040
2018-01-26T07:59:24.096Z,2100
2018-01-26T08:00:24.706Z,2156
2018-01-26T08:01:25.310Z,2204
2018-01-26T08:02:25.915Z,2268
2018-01-26T08:03:27.514Z,2372
2018-01-26T08:04:28.118Z,2532
2018-01-26T08:05:28.722Z,2736
2018-01-26T08:06:29.319Z,2984
2018-01-26T08:07:29.915Z,3260
2018-01-26T08:08:30.528Z,3524
2018-01-26T08:09:31.127Z,3736
2018-01-26T08:10:31.725Z,3676
2018-01-26T08:11:32.323Z,3648
2018-01-26T08:12:32.925Z,3680
2018-01-26T08:13:33.521Z,3660
2018-01-26T08:14:34.138Z,3560
2018-01-26T08:15:34.754Z,3492
2018-01-26T08:16:35.352Z,3428
2018-01-26T08:17:35.954Z,3348
2018-01-26T08:18:36.568Z,3280
2018-01-26T08:19:37.184Z,3244
2018-01-26T08:20:37.791Z,3260
2018-01-26T08:21:38.391Z,3324
2018-01-26T08:22:38.986Z,3432
2018-01-26T08:23:39.593Z,3604
2018-01-26T08:24:40.200Z,3856
2018-01-26T08:25:40.805Z,4152
2018-01-26T08:26:41.415Z,4444
2018-01-26T08:27:42.037Z,4688
2018-01-26T08:28:42.649Z,4852
2018-01-26T08:29:43.266Z,4908
2018-01-26T08:30:43.873Z,4900
2018-01-26T08:31:44.494Z,4864
2018-01-26T08:32:45.095Z,4832
2018-01-26T08:33:45.690Z,4808
2018-01-26T08:34:46.293Z,4812
2018-01-26T08:35:46.907Z,4832
2018-01-26T08:36:47.499Z,4884
2018-01-26T08:37:48.093Z,4948
2018-01-26T08:38:48.688Z,5036
2018-01-26T08:39:49.290Z,5148
2018-01-26T08:40:49.900Z,5268
2018-01-26T08:41:50.522Z,5404
2018-01-26T08:42:51.098Z,5548
2018-01-26T08:43:51.712Z,5700
2018-01-26T08:44:52.310Z,5872
2018-01-26T08:45:52.912Z,6028
2018-01-26T08:46:53.524Z,6172
2018-01-26T08:47:54.127Z,6312
2018-01-26T08:48:54.726Z,6500
2018-01-26T08:49:55.333Z,6756
2018-01-26T08:50:55.936Z,7072
2018-01-26T08:51:56.544Z,7428
2018-01-26T08:52:57.142Z,7744
2018-01-26T08:53:57.754Z,7976
2018-01-26T08:54:58.354Z,8084
2018-01-26T08:55:58.949Z,8008
2018-01-26T08:56:59.552Z,7776
2018-01-26T08:58:00.167Z,7612
2018-01-26T08:59:00.766Z,7628
2018-01-26T09:00:01.379Z,7616
2018-01-26T09:01:01.982Z,7708
2018-01-26T09:02:02.589Z,7908
2018-01-26T09:03:03.191Z,8236
2018-01-26T09:04:03.799Z,8488
2018-01-26T09:05:04.404Z,8628
2018-01-26T09:06:05.008Z,8712
2018-01-26T09:07:05.610Z,8688
2018-01-26T09:08:06.220Z,8596
2018-01-26T09:09:06.845Z,8516
2018-01-26T09:10:07.421Z,8480
2018-01-26T09:11:08.026Z,8376
2018-01-26T09:12:08.635Z,8268
2018-01-26T09:13:09.231Z,8168
2018-01-26T09:14:09.827Z,8104
2018-01-26T09:15:10.432Z,8084
2018-01-26T09:16:11.039Z,8156
2018-01-26T09:17:11.654Z,8208
2018-01-26T09:18:12.253Z,8344
2018-01-26T09:19:12.859Z,8572
2018-01-26T09:20:13.474Z,8812
2018-01-26T09:21:14.067Z,9012
2018-01-26T09:22:14.671Z,9156
2018-01-26T09:23:15.270Z,9216
2018-01-26T09:24:15.874Z,9276
2018-01-26T09:25:16.470Z,9316
2018-01-26T09:26:17.079Z,9360
2018-01-26T09:27:17.693Z,9380
2018-01-26T09:28:18.314Z,9424
2018-01-26T09:29:18.913Z,9536
2018-01-26T09:30:19.511Z,9716
2018-01-26T09:31:20.111Z,9924
2018-01-26T09:32:20.717Z,10108
2018-01-26T09:33:21.320Z,10280
2018-01-26T09:34:21.926Z,10464
2018-01-26T09:35:22.539Z,10720
2018-01-26T09:36:23.158Z,11056
2018-01-26T09:37:23.757Z,11424
2018-01-26T09:38:24.369Z,11792
2018-01-26T09:39:24.976Z,12132
2018-01-26T09:40:25.582Z,12488
2018-01-26T09:41:26.196Z,12840
2018-01-26T09:42:26.802Z,13148
2018-01-26T09:43:27.454Z,13336
2018-01-26T09:44:28.012Z,13384
2018-01-26T09:45:28.622Z,13436
2018-01-26T09:46:29.227Z,13572
2018-01-26T09:47:29.833Z,13772
2018-01-26T09:48:30.444Z,13976
2018-01-26T09:49:31.047Z,14184
2018-01-26T09:50:31.655Z,14344
2018-01-26T09:51:32.275Z,14416
2018-01-26T09:52:32.886Z,14420
2018-01-26T09:53:33.480Z,14332
2018-01-26T09:54:35.071Z,14316
2018-01-26T09:55:35.669Z,14304
2018-01-26T09:56:36.268Z,14488
2018-01-26T09:57:36.880Z,14544
2018-01-26T09:58:37.495Z,14408
2018-01-26T09:59:38.092Z,14488
2018-01-26T10:00:38.699Z,14440
2018-01-26T10:01:39.301Z,14884
2018-01-26T10:02:39.909Z,15312
2018-01-26T10:03:40.528Z,15644
2018-01-26T10:04:41.342Z,15884
2018-01-26T10:05:41.956Z,16528
2018-01-26T10:06:42.555Z,17180
2018-01-26T10:07:43.162Z,17488
2018-01-26T10:08:43.785Z,18432
2018-01-26T10:09:44.374Z,19008
2018-01-26T10:10:44.979Z,18848
2018-01-26T10:11:45.579Z,18848
2018-01-26T10:12:46.205Z,18624
2018-01-26T10:13:47.032Z,17700
2018-01-26T10:14:47.635Z,17816
2018-01-26T10:15:48.247Z,17440
2018-01-26T10:16:48.867Z,16744
2018-01-26T10:17:49.484Z,16320
2018-01-26T10:18:50.104Z,16400
2018-01-26T10:19:50.704Z,16660
2018-01-26T10:20:51.308Z,16896
2018-01-26T10:21:51.920Z,16864
2018-01-26T10:22:52.536Z,16848
2018-01-26T10:23:53.145Z,17576
2018-01-26T10:24:53.765Z,20832
2018-01-26T10:25:54.363Z,20448
2018-01-26T10:26:54.970Z,21984
2018-01-26T10:27:55.596Z,20928
2018-01-26T10:28:56.184Z,18624
2018-01-26T10:29:56.791Z,18204
2018-01-26T10:30:57.396Z,19520
2018-01-26T10:31:58.010Z,20064
2018-01-26T10:32:58.629Z,19584
2018-01-26T10:33:59.236Z,19712
2018-01-26T10:34:59.857Z,19840
2018-01-26T10:36:00.482Z,20160
2018-01-26T10:37:01.097Z,20256
2018-01-26T10:38:01.713Z,19808
2018-01-26T10:39:02.320Z,18944
2018-01-26T10:40:02.937Z,17712
2018-01-26T10:41:03.540Z,16652
2018-01-26T10:42:04.141Z,15652
2018-01-26T10:43:04.751Z,15100
2018-01-26T10:44:05.423Z,15248
2018-01-26T10:45:05.997Z,15696
2018-01-26T10:46:06.615Z,16568
2018-01-26T10:47:07.232Z,17472
2018-01-26T10:48:07.845Z,18072
2018-01-26T10:49:08.466Z,18368
2018-01-26T10:50:09.080Z,18328
2018-01-26T10:51:09.702Z,17916
2018-01-26T10:52:10.322Z,17264
2018-01-26T10:53:10.942Z,16428
2018-01-26T10:54:11.547Z,15620
2018-01-26T10:55:12.167Z,15160
2018-01-26T10:56:12.774Z,14976
2018-01-26T10:57:13.402Z,15076
2018-01-26T10:58:14.218Z,15412
2018-01-26T10:59:14.816Z,15936
2018-01-26T11:00:15.417Z,16304
2018-01-26T11:01:16.030Z,16284
2018-01-26T11:02:16.632Z,16024
2018-01-26T11:03:17.252Z,15552
2018-01-26T11:04:17.865Z,15096
2018-01-26T11:05:18.493Z,14760
2018-01-26T11:06:19.089Z,14536
2018-01-26T11:07:19.704Z,14380
2018-01-26T11:08:20.315Z,14480
2018-01-26T11:09:20.922Z,14676
2018-01-26T11:10:21.532Z,14872
2018-01-26T11:11:22.142Z,15076
2018-01-26T11:12:22.757Z,15296
2018-01-26T11:13:23.372Z,15552
2018-01-26T11:14:23.992Z,15788
2018-01-26T11:15:24.611Z,15716
2018-01-26T11:16:25.230Z,15628
2018-01-26T11:17:25.833Z,15784
2018-01-26T11:18:26.433Z,16260
2018-01-26T11:19:27.037Z,16832
2018-01-26T11:20:27.876Z,17156
2018-01-26T11:21:28.462Z,17368
2018-01-26T11:22:29.070Z,17608
2018-01-26T11:23:29.671Z,17868
2018-01-26T11:24:30.285Z,18024
2018-01-26T11:25:30.884Z,18108
2018-01-26T11:26:31.531Z,18392
2018-01-26T11:27:32.099Z,18732
2018-01-26T11:28:32.706Z,19648
2018-01-26T11:29:33.320Z,20800
2018-01-26T11:30:33.934Z,21664
2018-01-26T11:31:34.548Z,22080
2018-01-26T11:32:35.166Z,21568
2018-01-26T11:33:35.778Z,21312
2018-01-26T11:34:36.400Z,21216
2018-01-26T11:35:37.004Z,21536
2018-01-26T11:36:37.611Z,21984
2018-01-26T11:37:38.224Z,22304
2018-01-26T11:38:38.847Z,22432
2018-01-26T11:39:39.464Z,21888
2018-01-26T11:40:40.091Z,22112
2018-01-26T11:41:40.711Z,22144
2018-01-26T11:42:41.324Z,23264
2018-01-26T11:43:41.941Z,23296
2018-01-26T11:44:42.546Z,24608
2018-01-26T11:45:43.154Z,24960
2018-01-26T11:46:43.763Z,23840
2018-01-26T11:47:44.380Z,22784
2018-01-26T11:48:45.005Z,23232
2018-01-26T11:49:45.620Z,22656
2018-01-26T11:50:46.242Z,21440
2018-01-26T11:51:46.850Z,20000
2018-01-26T11:52:47.450Z,18284
2018-01-26T11:53:48.059Z,17428
2018-01-26T11:54:48.677Z,16952
2018-01-26T11:55:49.294Z,16812
2018-01-26T11:56:49.895Z,16808
2018-01-26T11:57:50.511Z,16716
2018-01-26T11:58:51.113Z,16420
2018-01-26T11:59:51.744Z,16268
2018-01-26T12:00:52.349Z,16296
2018-01-26T12:01:52.975Z,16316
2018-01-26T12:02:53.593Z,16468
2018-01-26T12:03:54.207Z,17064
2018-01-26T12:04:54.824Z,17476
2018-01-26T12:05:55.444Z,18556
2018-01-26T12:06:56.068Z,19328
2018-01-26T12:07:56.928Z,20064
2018-01-26T12:08:57.551Z,20192
2018-01-26T12:09:58.168Z,19360
2018-01-26T12:10:58.774Z,19168
2018-01-26T12:11:59.387Z,18392
2018-01-26T12:12:59.991Z,18440
2018-01-26T12:14:00.607Z,19584
2018-01-26T12:15:01.240Z,19648
2018-01-26T12:16:01.869Z,19648
2018-01-26T12:17:02.510Z,18816
2018-01-26T12:18:03.121Z,17496
2018-01-26T12:19:03.730Z,17116
2018-01-26T12:20:04.349Z,17068
2018-01-26T12:21:04.979Z,17024
2018-01-26T12:22:05.614Z,17376
2018-01-26T12:23:06.437Z,17732
2018-01-26T12:24:07.085Z,18432
2018-01-26T12:25:07.700Z,17644
2018-01-26T12:26:08.331Z,16272
2018-01-26T12:27:08.960Z,15664
2018-01-26T12:28:09.587Z,15284
2018-01-26T12:29:10.223Z,15176
2018-01-26T12:30:10.852Z,15808
2018-01-26T12:31:11.471Z,17248
2018-01-26T12:32:12.225Z,19136
2018-01-26T12:33:12.839Z,18036
2018-01-26T12:34:13.452Z,16804
2018-01-26T12:35:14.203Z,15812
2018-01-26T12:36:15.031Z,15148
2018-01-26T12:37:15.633Z,14564
2018-01-26T12:38:16.261Z,13764
2018-01-26T12:39:16.895Z,13772
2018-01-26T12:40:17.498Z,13504
2018-01-26T12:41:18.127Z,13492
2018-01-26T12:42:18.737Z,13104
2018-01-26T12:43:19.358Z,12460
2018-01-26T12:44:19.986Z,11848
2018-01-26T12:45:20.599Z,11480
2018-01-26T12:46:21.226Z,11400
2018-01-26T12:47:21.863Z,11440
2018-01-26T12:48:22.492Z,11584
2018-01-26T12:49:23.114Z,11608
2018-01-26T12:50:23.725Z,11516
2018-01-26T12:51:24.351Z,11264
2018-01-26T12:52:24.974Z,10828
2018-01-26T12:53:25.609Z,10432
2018-01-26T12:54:26.205Z,10140
2018-01-26T12:55:26.826Z,10060
2018-01-26T12:56:27.445Z,10264
2018-01-26T12:57:28.056Z,10572
2018-01-26T12:58:28.685Z,10876
2018-01-26T12:59:29.304Z,11132
2018-01-26T13:00:29.923Z,11720
2018-01-26T13:01:30.527Z,12632
2018-01-26T13:02:31.142Z,13288
2018-01-26T13:03:31.760Z,13560
2018-01-26T13:04:32.374Z,13484
2018-01-26T13:05:32.983Z,13060
2018-01-26T13:06:33.611Z,12560
2018-01-26T13:07:34.231Z,12144
2018-01-26T13:08:34.845Z,12000
2018-01-26T13:09:35.446Z,11928
2018-01-26T13:10:36.062Z,12068
2018-01-26T13:11:36.687Z,12428
2018-01-26T13:12:37.302Z,12764
2018-01-26T13:13:37.914Z,13092
2018-01-26T13:14:38.509Z,13276
2018-01-26T13:15:39.149Z,13324
2018-01-26T13:16:39.759Z,13180
2018-01-26T13:17:40.374Z,12848
2018-01-26T13:18:41.214Z,12788
2018-01-26T13:19:41.819Z,12932
2018-01-26T13:20:42.437Z,13096
2018-01-26T13:21:43.044Z,13108
2018-01-26T13:22:43.646Z,13104
2018-01-26T13:23:44.259Z,12908
2018-01-26T13:24:44.856Z,12792
2018-01-26T13:25:45.475Z,12732
2018-01-26T13:26:46.086Z,12632
2018-01-26T13:27:46.694Z,12572
2018-01-26T13:28:47.306Z,12484
2018-01-26T13:29:47.915Z,12480
2018-01-26T13:30:48.519Z,12480
2018-01-26T13:31:49.126Z,12360
2018-01-26T13:32:49.746Z,11996
2018-01-26T13:33:50.364Z,11720
2018-01-26T13:34:50.971Z,11568
2018-01-26T13:35:51.583Z,11668
2018-01-26T13:36:52.198Z,12080
2018-01-26T13:37:52.808Z,12800
2018-01-26T13:38:53.414Z,13372
2018-01-26T13:39:55.021Z,13676
2018-01-26T13:40:55.651Z,13856
2018-01-26T13:41:56.270Z,13848
2018-01-26T13:42:56.887Z,13700
2018-01-26T13:43:57.499Z,13540
2018-01-26T13:44:58.097Z,13400
2018-01-26T13:45:58.720Z,13224
2018-01-26T13:46:59.324Z,12932
2018-01-26T13:47:59.941Z,12604
2018-01-26T13:49:00.539Z,12264
2018-01-26T13:50:01.218Z,12040
2018-01-26T13:51:01.780Z,12060
2018-01-26T13:52:02.379Z,12352
2018-01-26T13:53:02.979Z,12788
2018-01-26T13:54:03.579Z,13188
2018-01-26T13:55:04.242Z,13468
2018-01-26T13:56:04.801Z,13552
2018-01-26T13:57:05.409Z,13420
2018-01-26T13:58:06.021Z,13136
2018-01-26T13:59:06.624Z,12796
2018-01-26T14:00:07.236Z,12492
2018-01-26T14:01:07.851Z,12308